Time;durP1;ratioP1;P1;durP2;ratioP2;P2;SDS_P1;SDS_P2;PMS_P1;PMS_P2;Temp;Humidity;BMP_temperature;BMP_pressure;BME280_temperature;BME280_humidity;BME280_pressure;Samples;Min_cycle;Max_cycle;Signal;HPM_P1;HPM_P2
2022/12/15 00:39:32;;;;;;;0.98;0.95;;;;;;;-7.16;93.33;100243.59;10516256;28;20056;-87
2022/12/15 00:44:34;;;;;;;0.85;0.85;;;;;;;-7.15;93.75;100250.47;10505317;28;20048;-86
2022/12/15 01:21:51;;;;;;;3.38;3.08;;;;;;;-7.38;93.62;100292.78;10392469;28;20869;-89
2022/12/15 01:26:54;;;;;;;0.40;0.40;;;;;;;-7.34;93.55;100293.91;10512172;28;20593;-85
2022/12/15 01:31:56;;;;;;;0.95;0.88;;;;;;;-7.40;93.31;100291.78;10527059;28;20044;-90
2022/12/15 01:36:57;;;;;;;0.30;0.30;;;;;;;-7.36;93.21;100301.41;10500537;28;20089;-84
2022/12/15 01:41:59;;;;;;;1.70;1.25;;;;;;;-7.43;93.06;100303.34;10495863;28;20032;-85
2022/12/15 01:47:01;;;;;;;1.40;1.30;;;;;;;-7.47;93.86;100300.56;10528449;28;20062;-86
2022/12/15 01:52:05;;;;;;;0.40;0.40;;;;;;;-7.47;93.25;100302.22;10503701;28;20094;-89
2022/12/15 01:57:12;;;;;;;0.50;0.50;;;;;;;-7.52;93.88;100295.84;10474275;28;20059;-87
2022/12/15 02:02:16;;;;;;;1.55;1.40;;;;;;;-7.52;93.58;100296.78;10532236;28;20052;-86
2022/12/15 02:07:18;;;;;;;1.65;1.55;;;;;;;-7.51;93.53;100295.09;10515584;28;20046;-86
2022/12/15 02:13:00;;;;;;;0.35;0.35;;;;;;;-7.46;93.32;100307.44;10507758;28;20036;-89
2022/12/15 02:18:20;;;;;;;1.10;1.02;;;;;;;-7.45;93.65;100300.69;10501110;28;20135;-85
2022/12/15 02:23:48;;;;;;;4.28;1.35;;;;;;;-7.41;93.45;100307.81;10504751;28;20048;-86
2022/12/15 02:29:07;;;;;;;0.85;0.85;;;;;;;-7.36;93.65;100311.59;10508388;28;20036;-85
2022/12/15 02:34:14;;;;;;;0.73;0.63;;;;;;;-7.38;93.74;100328.41;10533585;28;20048;-86
2022/12/15 02:39:17;;;;;;;2.08;1.75;;;;;;;-7.31;93.61;100330.69;10526117;28;20528;-87
2022/12/15 02:44:22;;;;;;;2.92;1.00;;;;;;;-7.31;93.98;100334.84;10531048;28;20048;-87
2022/12/15 02:49:36;;;;;;;5.63;1.27;;;;;;;-7.26;93.78;100337.81;10494356;28;20534;-90
2022/12/15 02:55:05;;;;;;;0.50;0.50;;;;;;;-7.30;94.00;100326.47;10512286;28;20135;-88
2022/12/15 03:00:10;;;;;;;0.22;0.22;;;;;;;-7.22;93.42;100340.72;10510772;28;20502;-84
2022/12/15 03:05:13;;;;;;;0.90;0.85;;;;;;;-7.23;93.70;100332.97;10489842;28;20067;-85
2022/12/15 03:10:16;;;;;;;8.45;1.88;;;;;;;-7.23;94.08;100343.13;10517271;28;20072;-89
2022/12/15 03:15:18;;;;;;;0.30;0.30;;;;;;;-7.21;93.96;100341.59;10522158;28;20086;-89
2022/12/15 03:20:19;;;;;;;0.20;0.20;;;;;;;-7.21;94.45;100332.28;10499909;28;20034;-90
2022/12/15 03:25:21;;;;;;;2.47;2.28;;;;;;;-7.15;93.79;100334.44;10473850;28;20494;-86
2022/12/15 03:30:23;;;;;;;0.57;0.57;;;;;;;-7.15;94.01;100340.41;10509252;28;20041;-86
2022/12/15 03:35:25;;;;;;;0.75;0.73;;;;;;;-7.16;94.35;100330.13;10519882;28;20497;-85
2022/12/15 03:40:27;;;;;;;1.17;0.95;;;;;;;-7.22;93.93;100334.72;10527379;28;20046;-88
2022/12/15 03:45:28;;;;;;;6.00;2.05;;;;;;;-7.19;94.21;100340.97;10496840;28;20060;-87
2022/12/15 03:50:30;;;;;;;0.73;0.70;;;;;;;-7.16;94.23;100345.38;10516001;28;20052;-88
2022/12/15 03:55:33;;;;;;;0.40;0.40;;;;;;;-7.18;93.97;100336.75;10523791;28;20044;-88
2022/12/15 04:00:36;;;;;;;0.20;0.20;;;;;;;-7.14;94.45;100348.97;10522189;28;20046;-84
2022/12/15 04:05:38;;;;;;;0.57;0.57;;;;;;;-7.13;94.28;100338.00;10522760;28;20055;-85
2022/12/15 04:10:40;;;;;;;1.45;1.30;;;;;;;-7.12;94.64;100339.78;10511574;28;20135;-84
2022/12/15 04:15:41;;;;;;;0.93;0.88;;;;;;;-7.09;94.47;100341.69;10495817;28;20117;-84
2022/12/15 04:20:43;;;;;;;0.73;0.73;;;;;;;-7.08;94.34;100346.03;10519654;28;20651;-84
2022/12/15 05:35:26;;;;;;;0.57;0.57;;;;;;;-7.14;94.36;100380.38;10570108;28;19915;-89
2022/12/15 05:40:28;;;;;;;0.40;0.40;;;;;;;-7.09;94.59;100379.88;10570178;28;20036;-90
2022/12/15 05:45:31;;;;;;;1.55;1.30;;;;;;;-7.03;94.59;100382.91;10583279;28;20027;-91
2022/12/15 05:50:34;;;;;;;1.27;1.15;;;;;;;-7.00;94.31;100396.75;10556602;28;20021;-88
2022/12/15 05:55:40;;;;;;;2.65;1.75;;;;;;;-6.94;94.84;100398.91;10565302;28;20029;-89
2022/12/15 06:00:41;;;;;;;1.30;0.95;;;;;;;-6.91;94.90;100393.19;10557205;28;20063;-89
2022/12/15 06:05:43;;;;;;;0.63;0.63;;;;;;;-6.88;94.87;100390.88;10591771;28;20043;-88
2022/12/15 06:10:52;;;;;;;1.25;1.00;;;;;;;-6.89;95.02;100401.81;10583418;28;20024;-86
2022/12/15 06:15:58;;;;;;;1.20;1.10;;;;;;;-6.90;94.56;100410.22;10569418;28;20036;-83
2022/12/15 06:21:02;;;;;;;0.20;0.20;;;;;;;-6.85;94.66;100411.50;10547442;28;20099;-85
2022/12/15 06:26:17;;;;;;;1.65;1.55;;;;;;;-6.77;94.85;100412.97;10548038;28;20044;-81
2022/12/15 06:31:24;;;;;;;0.22;0.22;;;;;;;-6.71;95.21;100408.41;10550841;28;20383;-84
2022/12/15 06:36:27;;;;;;;0.75;0.75;;;;;;;-6.67;94.98;100418.03;10517273;28;20071;-85
2022/12/15 06:41:30;;;;;;;1.33;1.23;;;;;;;-6.65;95.13;100421.63;10512061;28;20107;-83
2022/12/15 06:46:33;;;;;;;1.02;1.00;;;;;;;-6.58;95.35;100421.31;10533657;28;20471;-83
2022/12/15 06:51:35;;;;;;;0.50;0.50;;;;;;;-6.50;95.61;100431.22;10510984;28;20048;-84
2022/12/15 06:56:37;;;;;;;4.50;2.80;;;;;;;-6.49;95.41;100453.41;10540109;28;20058;-80
2022/12/15 07:01:40;;;;;;;1.95;1.45;;;;;;;-6.51;95.25;100452.41;10533245;28;20078;-84
2022/12/15 07:06:42;;;;;;;2.00;1.13;;;;;;;-6.48;94.90;100455.19;10513968;28;20040;-85
2022/12/15 07:11:45;;;;;;;0.50;0.50;;;;;;;-6.47;95.32;100459.50;10521456;28;20048;-85
2022/12/15 07:16:46;;;;;;;8.88;8.05;;;;;;;-6.45;95.18;100470.72;10511168;28;20036;-83
2022/12/15 07:21:48;;;;;;;1.27;1.17;;;;;;;-6.42;95.13;100474.38;10509941;28;20570;-79
2022/12/15 07:26:50;;;;;;;0.65;0.65;;;;;;;-6.32;95.39;100475.09;10517910;28;20049;-88
2022/12/15 07:31:52;;;;;;;1.65;0.93;;;;;;;-6.17;95.39;100480.53;10514693;28;20486;-84
2022/12/15 07:36:55;;;;;;;6.80;2.50;;;;;;;-6.01;95.46;100485.19;10508220;28;20050;-84
2022/12/15 07:41:56;;;;;;;1.92;1.02;;;;;;;-5.87;95.75;100482.91;10480500;28;20094;-86
2022/12/15 07:46:58;;;;;;;0.85;0.85;;;;;;;-5.69;95.75;100485.97;10487348;28;20040;-87
2022/12/15 07:52:00;;;;;;;1.63;1.50;;;;;;;-5.57;95.90;100488.59;10522494;28;20208;-84
2022/12/15 07:57:02;;;;;;;1.70;1.45;;;;;;;-5.48;95.55;100500.25;10521829;28;20040;-87
2022/12/15 08:02:03;;;;;;;1.02;0.98;;;;;;;-5.48;95.72;100492.59;10501877;28;20513;-89
2022/12/15 08:07:07;;;;;;;0.93;0.93;;;;;;;-5.38;95.82;100497.63;10500503;28;20567;-86
2022/12/15 08:12:09;;;;;;;3.15;1.13;;;;;;;-5.28;95.81;100517.97;10514726;28;20046;-83
2022/12/15 08:17:11;;;;;;;0.77;0.77;;;;;;;-5.25;96.03;100517.34;10536276;28;20051;-85
2022/12/15 08:22:14;;;;;;;0.73;0.73;;;;;;;-5.15;95.72;100525.78;10525904;28;20054;-85
2022/12/15 08:27:16;;;;;;;0.70;0.70;;;;;;;-5.04;95.85;100521.50;10506297;28;20382;-84
2022/12/15 08:32:17;;;;;;;0.40;0.40;;;;;;;-4.95;95.62;100515.28;10514663;28;20465;-83
2022/12/15 08:37:23;;;;;;;2.20;2.00;;;;;;;-4.83;95.88;100518.75;10539738;28;20067;-86
2022/12/15 08:42:25;;;;;;;0.50;0.50;;;;;;;-4.68;95.92;100526.66;10513618;28;20039;-84
2022/12/15 08:47:34;;;;;;;2.78;1.95;;;;;;;-4.52;95.74;100521.00;10505072;28;20076;-87
2022/12/15 08:52:40;;;;;;;1.55;0.90;;;;;;;-4.35;95.75;100529.91;10513877;28;20059;-87
2022/12/15 08:58:05;;;;;;;1.58;1.48;;;;;;;-4.30;95.72;100538.78;10505328;28;20048;-83
2022/12/15 09:03:08;;;;;;;0.20;0.20;;;;;;;-4.32;95.27;100545.47;10514896;28;20127;-86
2022/12/15 09:08:10;;;;;;;0.43;0.43;;;;;;;-4.38;95.35;100537.34;10486170;28;20058;-86
2022/12/15 09:13:15;;;;;;;0.73;0.73;;;;;;;-4.32;95.46;100548.03;10525654;28;20063;-85
2022/12/15 09:18:34;;;;;;;0.98;0.95;;;;;;;-4.20;95.29;100548.91;10495162;28;20063;-85
2022/12/15 09:23:36;;;;;;;4.35;1.20;;;;;;;-4.01;95.01;100545.97;10486841;28;20047;-83
2022/12/15 09:28:39;;;;;;;0.55;0.55;;;;;;;-3.89;95.16;100548.53;10494864;28;20055;-84
2022/12/15 09:33:50;;;;;;;1.30;1.27;;;;;;;-3.89;95.47;100545.97;10501197;28;20095;-86
2022/12/15 09:38:52;;;;;;;2.67;1.92;;;;;;;-3.84;94.98;100543.72;10486255;28;20043;-85
2022/12/15 09:43:57;;;;;;;0.90;0.90;;;;;;;-3.70;94.84;100547.28;10525780;28;20052;-84
2022/12/15 09:49:04;;;;;;;0.73;0.73;;;;;;;-3.43;94.66;100562.00;10503603;28;20728;-83
2022/12/15 09:54:10;;;;;;;0.82;0.82;;;;;;;-3.20;94.79;100553.34;10528665;28;20230;-83
2022/12/15 09:59:41;;;;;;;1.08;1.02;;;;;;;-2.94;94.44;100561.00;10523267;28;20044;-84
2022/12/15 10:05:01;;;;;;;0.93;0.85;;;;;;;-2.99;94.32;100564.94;10500620;28;20048;-84
2022/12/15 10:10:27;;;;;;;0.70;0.70;;;;;;;-2.91;93.98;100566.34;10511445;28;20036;-84
2022/12/15 10:15:40;;;;;;;0.85;0.85;;;;;;;-2.71;93.93;100576.25;10497798;28;20628;-85
2022/12/15 10:20:55;;;;;;;1.90;0.90;;;;;;;-2.51;93.64;100576.69;10454011;28;20041;-83
2022/12/15 10:26:19;;;;;;;1.17;0.95;;;;;;;-2.53;93.54;100570.59;10474328;28;20052;-82
2022/12/15 10:31:36;;;;;;;0.32;0.32;;;;;;;-2.42;93.29;100564.47;10501988;28;20471;-83
2022/12/15 10:36:48;;;;;;;1.23;1.13;;;;;;;-2.20;92.96;100573.56;10520519;28;20051;-84
2022/12/15 10:42:20;;;;;;;0.55;0.55;;;;;;;-2.07;92.68;100571.03;10513334;28;20690;-84
2022/12/15 10:47:32;;;;;;;3.28;2.05;;;;;;;-1.87;92.67;100548.31;10491008;28;20121;-83
2022/12/15 10:52:45;;;;;;;1.95;1.85;;;;;;;-1.74;92.33;100571.38;10498045;28;20075;-85
2022/12/15 10:58:02;;;;;;;1.10;1.02;;;;;;;-1.56;92.10;100565.59;10514208;28;20063;-85
2022/12/15 11:03:23;;;;;;;2.55;2.35;;;;;;;-1.44;92.01;100563.81;10498408;28;20048;-83
2022/12/15 11:08:31;;;;;;;1.25;1.20;;;;;;;-1.31;91.45;100568.00;10526489;28;20093;-92
2022/12/15 11:13:32;;;;;;;1.98;1.88;;;;;;;-1.17;91.56;100563.69;10509738;28;20130;-84
2022/12/15 11:18:50;;;;;;;0.40;0.40;;;;;;;-1.04;90.99;100573.06;10500245;28;20043;-83
2022/12/15 11:24:00;;;;;;;0.30;0.30;;;;;;;-0.99;90.56;100557.13;10484682;28;20044;-85
2022/12/15 11:29:22;;;;;;;0.50;0.50;;;;;;;-0.95;90.41;100568.47;10498767;28;20609;-84
2022/12/15 11:34:34;;;;;;;0.90;0.82;;;;;;;-0.79;90.30;100581.44;10499422;28;20541;-84
2022/12/15 11:39:44;;;;;;;1.92;1.75;;;;;;;-0.73;89.88;100583.47;10506985;28;20040;-86
2022/12/15 11:45:09;;;;;;;0.80;0.80;;;;;;;-0.58;89.86;100566.38;10477551;28;20092;-86
2022/12/15 11:50:23;;;;;;;1.60;1.50;;;;;;;-0.56;89.34;100567.34;10472907;28;20056;-84
2022/12/15 11:55:48;;;;;;;1.35;1.20;;;;;;;-0.43;89.19;100568.06;10510878;28;20581;-82
2022/12/15 12:01:13;;;;;;;1.17;1.08;;;;;;;-0.31;89.13;100560.19;10517644;28;20503;-82
2022/12/15 12:06:31;;;;;;;0.60;0.60;;;;;;;-0.13;88.94;100566.34;10531070;28;20048;-81
2022/12/15 12:11:53;;;;;;;2.17;1.48;;;;;;;-0.11;88.57;100567.31;10486939;28;20032;-82
2022/12/15 12:17:12;;;;;;;0.38;0.38;;;;;;;-0.03;88.33;100578.94;10503700;28;20046;-82
2022/12/15 12:22:23;;;;;;;0.80;0.80;;;;;;;-0.03;88.48;100578.03;10511718;28;20043;-83
2022/12/15 12:27:51;;;;;;;2.65;1.38;;;;;;;0.00;88.15;100575.66;10507585;28;20078;-83
2022/12/15 12:33:02;;;;;;;1.30;1.20;;;;;;;0.00;88.29;100585.97;10503280;28;20540;-83
2022/12/15 12:38:06;;;;;;;4.03;0.80;;;;;;;-0.09;87.98;100593.13;10507020;28;20047;-85
2022/12/15 12:43:11;;;;;;;1.55;1.30;;;;;;;-0.19;87.52;100587.47;10506285;28;20051;-84
2022/12/15 12:48:31;;;;;;;0.47;0.47;;;;;;;-0.24;87.97;100588.00;10503677;28;20056;-83
2022/12/15 12:53:33;;;;;;;16.20;1.55;;;;;;;-0.25;87.62;100574.25;10516479;28;20047;-83
2022/12/15 12:58:35;;;;;;;0.70;0.68;;;;;;;-0.23;87.96;100572.66;10497207;28;20055;-84
2022/12/15 13:03:43;;;;;;;3.85;1.17;;;;;;;-0.21;87.97;100576.22;10506259;28;20610;-84
2022/12/15 13:08:49;;;;;;;1.25;1.15;;;;;;;-0.20;87.55;100580.53;10511008;28;20044;-84
2022/12/15 13:13:54;;;;;;;0.52;0.52;;;;;;;-0.24;87.49;100578.63;10495979;28;20258;-84
2022/12/15 13:19:02;;;;;;;0.40;0.40;;;;;;;-0.25;87.81;100571.69;10517501;28;20040;-84
2022/12/15 13:24:04;;;;;;;0.73;0.60;;;;;;;-0.29;87.31;100554.28;10533085;28;20130;-85
2022/12/15 13:29:08;;;;;;;0.60;0.60;;;;;;;-0.36;87.51;100558.22;10509278;28;20117;-84
2022/12/15 13:34:17;;;;;;;1.23;0.98;;;;;;;-0.34;87.54;100565.16;10513218;28;20089;-84
2022/12/15 13:39:18;;;;;;;1.35;1.00;;;;;;;-0.37;87.51;100565.84;10516635;28;20112;-83
2022/12/15 13:44:22;;;;;;;1.80;1.23;;;;;;;-0.41;87.51;100564.75;10535544;28;20055;-81
2022/12/15 13:49:47;;;;;;;1.50;1.40;;;;;;;-0.41;87.29;100564.75;10513904;28;20040;-84
2022/12/15 13:54:57;;;;;;;1.65;1.55;;;;;;;-0.43;87.53;100574.09;10500473;28;20501;-84
2022/12/15 14:00:17;;;;;;;0.50;0.35;;;;;;;-0.47;87.84;100573.81;10509992;28;20195;-85
2022/12/15 14:05:21;;;;;;;0.80;0.80;;;;;;;-0.52;87.58;100575.25;10500229;28;20051;-84
2022/12/15 14:10:23;;;;;;;1.58;1.08;;;;;;;-0.61;87.47;100568.78;10495045;28;20497;-88
2022/12/15 14:15:30;;;;;;;1.45;1.25;;;;;;;-0.65;87.58;100573.66;10504380;28;20079;-87
2022/12/15 14:20:39;;;;;;;1.10;1.00;;;;;;;-0.75;87.68;100574.78;10514218;28;20490;-84
2022/12/15 14:26:11;;;;;;;0.73;0.70;;;;;;;-0.78;87.64;100572.94;10511099;28;20666;-82
2022/12/15 14:31:18;;;;;;;0.28;0.28;;;;;;;-0.81;87.76;100561.56;10530416;28;20052;-82
2022/12/15 14:36:20;;;;;;;1.13;0.85;;;;;;;-0.86;88.06;100571.56;10514299;28;20048;-84
2022/12/15 14:41:42;;;;;;;0.43;0.40;;;;;;;-0.92;88.03;100564.38;10497414;28;20040;-82
2022/12/15 14:46:47;;;;;;;2.95;1.10;;;;;;;-1.07;87.79;100560.91;10506795;28;20074;-82
2022/12/15 14:51:55;;;;;;;2.65;1.60;;;;;;;-1.15;87.97;100580.13;10526427;28;20039;-83
2022/12/15 14:57:11;;;;;;;0.22;0.22;;;;;;;-1.22;88.24;100572.81;10518961;28;20047;-84
2022/12/15 15:02:25;;;;;;;1.50;1.02;;;;;;;-1.27;88.41;100565.72;10515081;28;20066;-83
2022/12/15 15:07:28;;;;;;;3.72;0.93;;;;;;;-1.38;88.57;100571.91;10515253;28;20041;-84
2022/12/15 15:12:44;;;;;;;0.73;0.73;;;;;;;-1.47;88.53;100572.22;10514908;28;20070;-84
2022/12/15 15:17:53;;;;;;;0.55;0.55;;;;;;;-1.54;89.06;100575.19;10477712;28;20150;-83
2022/12/15 15:23:07;;;;;;;1.83;1.30;;;;;;;-1.68;88.79;100574.34;10490236;28;20052;-80
2022/12/15 15:28:17;;;;;;;1.17;1.08;;;;;;;-1.71;89.04;100574.16;10520398;28;20051;-82
2022/12/15 15:33:21;;;;;;;2.10;1.50;;;;;;;-1.79;89.39;100577.88;10520623;28;20071;-81
2022/12/15 15:38:37;;;;;;;1.75;1.65;;;;;;;-1.91;89.40;100584.81;10426844;28;20079;-83
2022/12/15 15:43:39;;;;;;;0.55;0.55;;;;;;;-2.00;89.50;100575.75;10433642;28;20481;-81
2022/12/15 15:48:50;;;;;;;6.93;2.22;;;;;;;-1.98;89.54;100570.72;10499444;28;20051;-83
2022/12/15 15:53:58;;;;;;;1.85;1.70;;;;;;;-1.93;90.05;100581.28;10506728;28;20074;-83
2022/12/15 15:59:27;;;;;;;1.27;1.17;;;;;;;-2.03;90.08;100578.09;10527847;28;20064;-83
2022/12/15 16:04:56;;;;;;;1.57;1.33;;;;;;;-2.07;90.22;100578.72;10499522;28;20040;-82
2022/12/15 16:09:59;;;;;;;3.40;2.15;;;;;;;-2.13;90.12;100573.19;10486350;28;20048;-84
2022/12/15 16:15:00;;;;;;;1.20;1.13;;;;;;;-2.18;90.69;100583.16;10510247;28;20523;-81
2022/12/15 16:20:03;;;;;;;4.25;0.63;;;;;;;-2.19;90.23;100583.03;10500790;28;20085;-82
2022/12/15 16:25:08;;;;;;;0.77;0.77;;;;;;;-2.23;90.67;100586.22;10489587;28;20044;-80
2022/12/15 16:30:16;;;;;;;2.08;1.85;;;;;;;-2.27;90.67;100568.84;10497977;28;20056;-80
2022/12/15 16:35:18;;;;;;;1.00;0.93;;;;;;;-2.33;90.86;100565.09;10535076;28;20048;-81
2022/12/15 16:40:25;;;;;;;0.43;0.43;;;;;;;-2.39;90.56;100572.34;10528081;28;20044;-81
2022/12/15 16:45:29;;;;;;;3.65;2.70;;;;;;;-2.39;90.87;100563.78;10512801;28;20059;-80
2022/12/15 16:50:35;;;;;;;0.77;0.75;;;;;;;-2.44;90.97;100573.75;10505364;28;20044;-80
2022/12/15 16:55:36;;;;;;;2.25;1.52;;;;;;;-2.49;91.21;100581.13;10531250;28;20048;-81
2022/12/15 17:00:41;;;;;;;2.60;0.98;;;;;;;-2.51;91.20;100575.03;10530816;28;21662;-81
2022/12/15 17:05:47;;;;;;;2.88;0.65;;;;;;;-2.46;91.37;100579.56;10523894;28;20043;-79
2022/12/15 17:10:50;;;;;;;2.20;1.92;;;;;;;-2.45;91.54;100584.78;10496069;28;20103;-82
2022/12/15 17:15:53;;;;;;;3.80;2.33;;;;;;;-2.46;91.61;100595.84;10483202;28;20051;-82
2022/12/15 17:21:02;;;;;;;1.00;0.98;;;;;;;-2.50;91.69;100586.16;10477702;28;20092;-81
2022/12/15 17:26:05;;;;;;;1.48;1.38;;;;;;;-2.53;92.05;100591.09;10487656;28;20053;-84
2022/12/15 17:31:27;;;;;;;0.82;0.82;;;;;;;-2.60;91.92;100582.09;10472736;28;20139;-83
2022/12/15 17:36:36;;;;;;;1.60;1.17;;;;;;;-2.61;91.63;100576.88;10495841;28;20087;-82
2022/12/15 17:41:38;;;;;;;5.53;3.40;;;;;;;-2.65;91.69;100600.53;10482252;28;20527;-80
2022/12/15 17:46:59;;;;;;;1.25;1.15;;;;;;;-2.71;91.97;100598.44;10460686;28;20064;-81
2022/12/15 17:52:16;;;;;;;4.68;3.28;;;;;;;-2.76;91.78;100615.16;10485138;28;20048;-80
2022/12/15 17:57:18;;;;;;;1.23;0.98;;;;;;;-2.86;91.96;100606.88;10462745;28;20045;-82
2022/12/15 18:02:20;;;;;;;1.05;1.00;;;;;;;-2.97;92.12;100614.59;10480667;28;20096;-81
2022/12/15 18:07:22;;;;;;;2.42;1.58;;;;;;;-3.00;91.92;100610.19;10471352;28;20151;-82
2022/12/15 18:12:25;;;;;;;2.47;1.58;;;;;;;-2.95;92.36;100610.50;10467592;28;20086;-82
2022/12/15 18:17:27;;;;;;;1.55;1.45;;;;;;;-2.89;92.18;100618.59;10439228;28;20571;-81
2022/12/15 18:22:30;;;;;;;4.40;1.95;;;;;;;-2.86;92.56;100629.06;10448220;28;20037;-81
2022/12/15 18:27:47;;;;;;;2.60;1.98;;;;;;;-2.78;92.71;100632.13;10474710;28;20060;-80
2022/12/15 18:32:54;;;;;;;2.25;2.05;;;;;;;-2.77;92.79;100629.69;10463058;28;20512;-83
2022/12/15 18:37:56;;;;;;;0.70;0.70;;;;;;;-2.71;92.64;100634.34;10467422;28;20494;-81
2022/12/15 18:42:58;;;;;;;1.63;1.52;;;;;;;-2.67;92.48;100633.75;10463169;28;20048;-80
2022/12/15 18:48:00;;;;;;;0.65;0.65;;;;;;;-2.57;93.02;100648.94;10494917;28;20049;-80
2022/12/15 18:53:04;;;;;;;1.75;1.60;;;;;;;-2.47;92.81;100655.59;10495057;28;20494;-79
2022/12/15 18:58:18;;;;;;;2.42;1.65;;;;;;;-2.39;92.88;100659.56;10487867;28;20393;-80
2022/12/15 19:03:21;;;;;;;0.52;0.52;;;;;;;-2.33;92.85;100665.13;10474532;28;20049;-82
2022/12/15 19:08:23;;;;;;;3.33;1.73;;;;;;;-2.29;92.51;100655.06;10487039;28;20048;-80
2022/12/15 19:13:30;;;;;;;2.20;2.00;;;;;;;-2.17;92.51;100671.25;10439036;28;20391;-82
2022/12/15 19:23:52;;;;;;;2.20;1.90;;;;;;;-2.11;92.41;100681.94;10486646;28;20631;-81
2022/12/15 19:28:54;;;;;;;3.17;2.50;;;;;;;-2.05;92.67;100692.59;10468656;28;20112;-81
2022/12/15 19:33:56;;;;;;;3.60;2.75;;;;;;;-2.07;92.58;100709.56;10489046;28;20040;-83
2022/12/15 19:38:58;;;;;;;2.53;2.33;;;;;;;-2.07;92.16;100709.56;10488129;28;20040;-82
2022/12/15 19:43:59;;;;;;;1.70;1.42;;;;;;;-2.08;92.17;100707.78;10484652;28;20041;-81
2022/12/15 19:49:01;;;;;;;1.25;1.15;;;;;;;-2.06;92.26;100713.03;10491806;28;20040;-82
2022/12/15 19:54:12;;;;;;;0.68;0.60;;;;;;;-2.08;92.17;100712.91;10485228;28;20083;-84
2022/12/15 19:59:22;;;;;;;0.57;0.57;;;;;;;-2.10;91.84;100713.59;10455681;28;20052;-83
2022/12/15 20:04:24;;;;;;;11.02;3.15;;;;;;;-2.14;91.78;100717.66;10479139;28;20052;-82
2022/12/15 20:09:26;;;;;;;1.95;1.73;;;;;;;-2.20;91.67;100720.69;10483016;28;20048;-81
2022/12/15 20:14:28;;;;;;;2.42;1.75;;;;;;;-2.20;91.94;100735.19;10487229;28;20052;-81
2022/12/15 20:19:29;;;;;;;2.35;1.92;;;;;;;-2.12;91.63;100741.72;10483956;28;20575;-81
2022/12/15 20:24:32;;;;;;;0.70;0.70;;;;;;;-2.09;91.80;100739.34;10483060;28;20493;-83
2022/12/15 20:29:34;;;;;;;1.70;1.25;;;;;;;-2.05;91.89;100745.59;10474912;28;20611;-81
2022/12/15 20:34:37;;;;;;;0.90;0.88;;;;;;;-1.99;91.89;100748.56;10486465;28;20042;-82
2022/12/15 20:39:39;;;;;;;4.55;2.38;;;;;;;-1.93;91.79;100735.28;10492934;28;20055;-82
2022/12/15 20:44:40;;;;;;;1.50;1.40;;;;;;;-1.90;91.68;100732.91;10466832;28;20049;-79
2022/12/15 20:49:42;;;;;;;0.82;0.82;;;;;;;-1.91;91.80;100738.81;10473639;28;20077;-82
2022/12/15 20:54:44;;;;;;;2.17;1.40;;;;;;;-1.87;91.81;100744.25;10478049;28;20116;-82
2022/12/15 20:59:46;;;;;;;5.82;1.75;;;;;;;-1.85;91.54;100746.91;10481084;28;20135;-82
2022/12/15 21:04:50;;;;;;;1.27;1.17;;;;;;;-1.82;91.43;100753.16;10455101;28;20692;-83
2022/12/15 21:09:55;;;;;;;0.80;0.80;;;;;;;-1.86;91.51;100750.25;10478301;28;20065;-82
2022/12/15 21:15:28;;;;;;;2.45;1.95;;;;;;;-1.87;91.40;100748.50;10477643;28;20111;-81
2022/12/15 21:20:31;;;;;;;0.63;0.63;;;;;;;-1.92;91.55;100737.94;10487878;28;20063;-81
2022/12/15 21:25:34;;;;;;;0.90;0.90;;;;;;;-2.01;91.55;100735.63;10458459;28;20049;-82
2022/12/15 21:30:43;;;;;;;0.68;0.68;;;;;;;-2.08;91.55;100737.69;10443834;28;20513;-82
2022/12/15 21:35:49;;;;;;;0.98;0.95;;;;;;;-2.16;91.30;100745.75;10494307;28;20094;-81
2022/12/15 21:41:20;;;;;;;2.17;1.98;;;;;;;-2.16;91.39;100743.19;10471006;28;20352;-82
2022/12/15 21:46:27;;;;;;;2.00;1.75;;;;;;;-2.24;91.46;100746.03;10469032;28;20059;-81
2022/12/15 21:51:37;;;;;;;3.97;2.80;;;;;;;-2.36;91.44;100752.13;10477533;28;20047;-81
2022/12/15 21:56:44;;;;;;;1.27;1.08;;;;;;;-2.45;91.25;100754.03;10453841;28;20054;-81
2022/12/15 22:01:54;;;;;;;0.40;0.40;;;;;;;-2.57;91.19;100753.19;10477899;28;20040;-81
2022/12/15 22:06:56;;;;;;;2.50;2.25;;;;;;;-2.64;91.14;100753.53;10486908;28;20049;-81
2022/12/15 22:11:58;;;;;;;0.88;0.75;;;;;;;-2.74;91.03;100747.78;10471455;28;20468;-82
2022/12/15 22:17:14;;;;;;;6.97;1.27;;;;;;;-2.86;91.16;100757.19;10467793;28;20049;-81
2022/12/15 22:22:16;;;;;;;1.95;1.65;;;;;;;-2.95;91.29;100761.66;10482488;28;20494;-81
2022/12/15 22:27:21;;;;;;;3.42;1.88;;;;;;;-3.07;91.21;100762.56;10479148;28;20117;-81
2022/12/15 22:32:25;;;;;;;1.67;1.52;;;;;;;-3.11;91.28;100758.00;10471705;28;20036;-80
2022/12/15 22:37:30;;;;;;;3.00;1.98;;;;;;;-3.17;91.20;100772.94;10463597;28;20052;-81
2022/12/15 22:42:32;;;;;;;0.90;0.90;;;;;;;-3.14;91.56;100774.81;10484599;28;20045;-83
2022/12/15 22:47:36;;;;;;;3.03;1.88;;;;;;;-3.17;91.41;100775.50;10484475;28;20051;-83
2022/12/15 22:52:37;;;;;;;1.52;1.42;;;;;;;-3.17;91.65;100774.59;10450373;28;20585;-81
2022/12/15 22:57:40;;;;;;;2.17;1.98;;;;;;;-3.15;91.55;100781.63;10471282;28;20422;-83
2022/12/15 23:02:48;;;;;;;2.63;2.22;;;;;;;-3.15;91.76;100784.19;10460198;28;20468;-81
2022/12/15 23:07:50;;;;;;;0.85;0.85;;;;;;;-3.11;91.54;100786.16;10459244;28;20203;-80
2022/12/15 23:12:53;;;;;;;13.38;2.38;;;;;;;-3.00;91.88;100793.75;10486330;28;20040;-79
2022/12/15 23:18:02;;;;;;;1.88;1.58;;;;;;;-2.99;91.77;100801.53;10457483;28;20046;-80
2022/12/15 23:23:05;;;;;;;1.38;1.27;;;;;;;-2.97;91.86;100809.34;10472825;28;20116;-81
2022/12/15 23:28:07;;;;;;;1.08;1.02;;;;;;;-2.96;91.90;100801.75;10472199;28;20078;-82
2022/12/15 23:33:09;;;;;;;1.88;1.73;;;;;;;-2.91;91.72;100814.88;10434949;28;20055;-81
2022/12/15 23:38:14;;;;;;;1.67;1.33;;;;;;;-2.83;91.75;100812.91;10457361;28;20063;-81
2022/12/15 23:43:16;;;;;;;1.25;1.15;;;;;;;-2.82;91.78;100815.56;10481577;28;20049;-81
2022/12/15 23:48:18;;;;;;;2.65;1.20;;;;;;;-2.78;91.88;100827.81;10449191;28;20075;-81
2022/12/15 23:53:23;;;;;;;3.72;2.42;;;;;;;-2.77;91.88;100824.47;10473347;28;20044;-81
2022/12/15 23:58:24;;;;;;;2.00;1.77;;;;;;;-2.77;91.72;100826.16;10475046;28;20090;-81
